Time;durP1;ratioP1;P1;durP2;ratioP2;P2;SDS_P1;SDS_P2;PMS_P1;PMS_P2;Temp;Humidity;BMP_temperature;BMP_pressure;BME280_temperature;BME280_humidity;BME280_pressure;Samples;Min_cycle;Max_cycle;Signal;HPM_P1;HPM_P2
2023/06/10 00:00:55;;;;;;;5.63;5.13;;;20.20;99.90;;;;;;5055137;28;20170;-71
2023/06/10 00:03:23;;;;;;;5.97;5.03;;;20.10;99.90;;;;;;5055239;28;20265;-71
2023/06/10 00:05:49;;;;;;;5.50;4.63;;;19.80;99.90;;;;;;5037160;28;20194;-69
2023/06/10 00:08:19;;;;;;;5.75;5.15;;;19.80;99.90;;;;;;5055525;28;20169;-70
2023/06/10 00:10:45;;;;;;;5.53;4.97;;;19.90;99.90;;;;;;5055382;28;20163;-70
2023/06/10 00:13:11;;;;;;;4.75;4.35;;;19.90;99.90;;;;;;5055054;28;20185;-70
2023/06/10 00:15:37;;;;;;;5.30;4.90;;;19.80;99.90;;;;;;5055072;28;20329;-70
2023/06/10 00:18:04;;;;;;;4.97;4.57;;;19.90;99.90;;;;;;5055088;28;20166;-70
2023/06/10 00:20:30;;;;;;;5.38;4.97;;;19.80;99.90;;;;;;5054815;28;20190;-71
2023/06/10 00:22:56;;;;;;;5.63;5.13;;;19.90;99.90;;;;;;5082662;23;20231;-69
2023/06/10 00:25:22;;;;;;;6.32;4.95;;;19.70;99.90;;;;;;5091756;28;20693;-69
2023/06/10 00:27:48;;;;;;;5.55;5.05;;;19.50;99.90;;;;;;5073531;28;20210;-69
2023/06/10 00:30:14;;;;;;;5.50;5.00;;;19.40;99.90;;;;;;5073552;28;20178;-69
2023/06/10 00:32:39;;;;;;;5.43;4.80;;;19.20;99.90;;;;;;5073524;28;20193;-69
2023/06/10 00:35:06;;;;;;;5.20;4.70;;;19.30;99.90;;;;;;5073298;28;20198;-69
2023/06/10 00:37:32;;;;;;;5.55;4.72;;;19.60;99.90;;;;;;5073413;28;20247;-69
2023/06/10 00:39:58;;;;;;;5.45;4.85;;;19.50;99.90;;;;;;5073521;28;20653;-68
2023/06/10 00:42:24;;;;;;;5.90;5.00;;;19.50;99.90;;;;;;5073083;28;20254;-68
2023/06/10 00:44:54;;;;;;;5.13;4.68;;;19.50;99.90;;;;;;5073199;28;20172;-69
2023/06/10 00:47:20;;;;;;;4.88;4.55;;;19.30;99.90;;;;;;5073009;28;20598;-69
2023/06/10 00:49:46;;;;;;;5.68;5.28;;;19.20;99.90;;;;;;5073215;28;20280;-69
2023/06/10 00:52:13;;;;;;;5.07;4.68;;;19.20;99.90;;;;;;5072860;28;20626;-69
2023/06/10 00:54:39;;;;;;;4.90;4.50;;;19.10;99.90;;;;;;5073010;28;20574;-69
2023/06/10 00:57:05;;;;;;;5.15;4.75;;;19.00;99.90;;;;;;5072933;28;20243;-69
2023/06/10 00:59:32;;;;;;;5.80;5.13;;;18.90;99.90;;;;;;5073328;28;20170;-69
2023/06/10 01:01:58;;;;;;;4.85;4.55;;;18.80;99.90;;;;;;5072151;28;20166;-69
2023/06/10 01:04:24;;;;;;;6.85;4.80;;;18.80;99.90;;;;;;5072700;28;20677;-69
2023/06/10 01:07:14;;;;;;;6.17;5.13;;;18.70;99.90;;;;;;5071443;28;20277;-69
2023/06/10 01:10:02;;;;;;;6.13;5.53;;;18.60;99.90;;;;;;5072796;28;20201;-69
2023/06/10 01:12:51;;;;;;;8.10;4.93;;;18.40;99.90;;;;;;5072810;28;20169;-69
2023/06/10 01:15:18;;;;;;;5.63;5.13;;;18.40;99.90;;;;;;5061407;28;20173;-68
2023/06/10 01:18:01;;;;;;;5.67;5.07;;;18.30;99.90;;;;;;5071960;28;20201;-69
2023/06/10 01:20:28;;;;;;;5.03;4.53;;;18.20;99.90;;;;;;5072475;28;20517;-69
2023/06/10 01:22:54;;;;;;;6.63;5.00;;;18.30;99.90;;;;;;5072966;28;20229;-69
2023/06/10 01:25:27;;;;;;;6.23;5.00;;;18.20;99.90;;;;;;5072653;28;20649;-69
2023/06/10 01:28:06;;;;;;;5.23;4.83;;;18.10;99.90;;;;;;5073146;28;20169;-68
2023/06/10 01:31:02;;;;;;;5.40;5.00;;;18.00;99.90;;;;;;5072955;28;20183;-68
2023/06/10 01:33:31;;;;;;;5.20;4.70;;;18.20;99.90;;;;;;5061414;28;20224;-69
2023/06/10 01:35:58;;;;;;;5.47;5.00;;;18.50;99.90;;;;;;5071835;28;20197;-69
2023/06/10 01:38:26;;;;;;;5.33;4.90;;;18.70;99.90;;;;;;5072135;28;20189;-69
2023/06/10 01:40:54;;;;;;;4.97;4.43;;;19.00;99.90;;;;;;5071944;28;20661;-69
2023/06/10 01:43:21;;;;;;;4.87;4.47;;;19.10;99.90;;;;;;5071857;28;20193;-68
2023/06/10 01:45:46;;;;;;;4.57;4.17;;;19.10;99.90;;;;;;5071808;28;20570;-68
2023/06/10 01:48:12;;;;;;;4.75;4.35;;;19.00;99.90;;;;;;5070955;28;20166;-69
2023/06/10 01:50:38;;;;;;;4.80;4.40;;;19.10;99.90;;;;;;5071855;28;20254;-68
2023/06/10 01:53:05;;;;;;;5.50;4.93;;;19.10;99.90;;;;;;5058725;28;20178;-68
2023/06/10 01:55:31;;;;;;;5.77;4.20;;;19.00;99.90;;;;;;5071788;28;20186;-68
2023/06/10 01:57:56;;;;;;;4.38;4.07;;;18.80;99.90;;;;;;5071584;28;20185;-69
2023/06/10 02:00:22;;;;;;;4.07;3.77;;;19.10;99.90;;;;;;5071929;28;20570;-69
2023/06/10 02:02:48;;;;;;;4.70;4.30;;;19.10;99.90;;;;;;5071592;28;20569;-69
2023/06/10 02:05:13;;;;;;;4.67;4.30;;;19.10;99.90;;;;;;5058172;28;20199;-69
2023/06/10 02:07:39;;;;;;;4.45;4.05;;;19.10;99.90;;;;;;5071705;28;20212;-69
2023/06/10 02:10:06;;;;;;;4.97;4.57;;;19.10;99.90;;;;;;5071603;28;20170;-69
2023/06/10 02:12:31;;;;;;;4.23;3.93;;;19.00;99.90;;;;;;5071965;28;20169;-69
2023/06/10 02:14:57;;;;;;;5.10;4.40;;;19.00;99.90;;;;;;5071376;28;20176;-69
2023/06/10 02:17:23;;;;;;;4.23;3.93;;;18.90;99.90;;;;;;5071067;28;20203;-69
2023/06/10 02:19:52;;;;;;;5.23;4.80;;;18.80;99.90;;;;;;5071489;28;20165;-68
2023/06/10 02:22:21;;;;;;;5.20;4.63;;;18.70;99.90;;;;;;5071266;28;20268;-69
2023/06/10 02:24:47;;;;;;;4.88;4.53;;;18.60;99.90;;;;;;5071207;28;20185;-69
2023/06/10 02:27:14;;;;;;;4.63;4.20;;;18.60;99.90;;;;;;5071465;28;20197;-68
2023/06/10 02:29:41;;;;;;;5.60;4.50;;;18.40;99.90;;;;;;5071537;28;20180;-69
2023/06/10 02:32:07;;;;;;;4.53;4.13;;;18.30;99.90;;;;;;5071255;28;20166;-69
2023/06/10 02:34:33;;;;;;;4.50;3.93;;;18.10;99.90;;;;;;5071296;28;20181;-68
2023/06/10 02:36:59;;;;;;;4.93;4.50;;;18.00;99.90;;;;;;5071240;28;20189;-69
2023/06/10 02:39:25;;;;;;;5.00;4.60;;;18.00;99.90;;;;;;5071561;28;20177;-69
2023/06/10 02:41:51;;;;;;;4.67;4.30;;;18.20;99.90;;;;;;5071703;28;20173;-69
2023/06/10 02:44:17;;;;;;;4.70;4.30;;;18.40;99.90;;;;;;5071052;28;20295;-69
2023/06/10 02:46:43;;;;;;;4.80;4.40;;;18.50;99.90;;;;;;5071379;28;20226;-69
2023/06/10 02:49:09;;;;;;;4.77;4.37;;;18.50;99.90;;;;;;5071548;28;20162;-69
2023/06/10 02:51:35;;;;;;;4.57;4.17;;;18.50;99.90;;;;;;5071326;28;20173;-69
2023/06/10 02:54:01;;;;;;;5.30;4.43;;;18.40;99.90;;;;;;5070785;28;20173;-69
2023/06/10 02:56:27;;;;;;;4.90;4.50;;;18.40;99.90;;;;;;5071234;28;20200;-69
2023/06/10 02:58:53;;;;;;;4.53;4.17;;;18.30;99.90;;;;;;5071097;28;20225;-69
2023/06/10 03:01:18;;;;;;;4.70;4.23;;;18.20;99.90;;;;;;5071376;28;20755;-69
2023/06/10 03:03:46;;;;;;;4.40;4.10;;;18.30;99.90;;;;;;5071129;28;20201;-69
2023/06/10 03:06:12;;;;;;;4.70;4.30;;;18.20;99.90;;;;;;5070984;28;20338;-69
2023/06/10 03:08:39;;;;;;;4.70;4.30;;;18.20;99.90;;;;;;5071449;28;20208;-69
2023/06/10 03:11:04;;;;;;;4.80;4.40;;;18.10;99.90;;;;;;5071026;28;20178;-69
2023/06/10 03:13:32;;;;;;;5.23;4.10;;;18.00;99.90;;;;;;5069965;28;20770;-69
2023/06/10 03:15:57;;;;;;;5.63;5.07;;;17.90;99.90;;;;;;5070541;28;20209;-69
2023/06/10 03:18:26;;;;;;;5.60;5.10;;;17.90;99.90;;;;;;5070871;28;20181;-68
2023/06/10 03:20:52;;;;;;;4.70;4.30;;;17.70;99.90;;;;;;5070027;28;20196;-69
2023/06/10 03:23:18;;;;;;;4.77;4.37;;;17.60;99.90;;;;;;5070823;28;20207;-69
2023/06/10 03:25:44;;;;;;;5.33;4.50;;;17.50;99.90;;;;;;5070586;28;20280;-69
2023/06/10 03:28:10;;;;;;;5.37;4.97;;;17.40;99.90;;;;;;5070755;28;20252;-69
2023/06/10 03:30:35;;;;;;;5.30;4.80;;;17.40;99.90;;;;;;5070768;28;20672;-68
2023/06/10 03:33:01;;;;;;;6.03;4.53;;;17.40;99.90;;;;;;5070909;28;20183;-68
2023/06/10 03:35:26;;;;;;;4.73;4.30;;;17.30;99.90;;;;;;5070442;28;20191;-69
2023/06/10 03:37:52;;;;;;;4.87;4.47;;;17.30;99.90;;;;;;5070861;28;20208;-68
2023/06/10 03:40:17;;;;;;;5.10;4.40;;;17.60;99.90;;;;;;5070991;28;20194;-69
2023/06/10 03:42:46;;;;;;;6.70;5.07;;;17.90;99.90;;;;;;5074364;28;20282;-69
2023/06/10 03:45:12;;;;;;;4.90;4.50;;;18.00;99.90;;;;;;5073893;28;21037;-69
2023/06/10 03:47:38;;;;;;;4.63;4.23;;;18.10;99.90;;;;;;5074295;28;20196;-69
2023/06/10 03:50:04;;;;;;;5.03;4.47;;;18.10;99.90;;;;;;5073995;28;20265;-69
2023/06/10 03:52:30;;;;;;;5.13;4.27;;;18.20;99.90;;;;;;5074246;28;20178;-69
2023/06/10 03:54:55;;;;;;;4.37;3.97;;;18.30;99.90;;;;;;5073745;28;20184;-68
2023/06/10 03:57:21;;;;;;;5.40;4.70;;;18.60;99.90;;;;;;5074308;28;20221;-69
2023/06/10 03:59:47;;;;;;;7.67;4.70;;;18.80;99.90;;;;;;5074050;28;20657;-69
2023/06/10 04:02:12;;;;;;;4.63;4.00;;;18.80;99.90;;;;;;5073846;28;20178;-69
2023/06/10 04:04:38;;;;;;;4.90;4.50;;;18.80;99.90;;;;;;5073670;28;20209;-69
2023/06/10 04:07:05;;;;;;;4.90;4.40;;;18.90;99.90;;;;;;5074066;28;20591;-68
2023/06/10 04:09:30;;;;;;;4.73;4.13;;;19.00;99.90;;;;;;5074048;28;20169;-69
2023/06/10 04:11:56;;;;;;;4.97;4.55;;;19.00;99.90;;;;;;5074058;28;20507;-69
2023/06/10 04:14:21;;;;;;;5.17;4.77;;;19.00;99.90;;;;;;5072238;28;20254;-69
2023/06/10 04:16:47;;;;;;;5.25;4.75;;;19.00;99.90;;;;;;5076862;28;20232;-69
2023/06/10 04:19:13;;;;;;;5.25;4.75;;;19.00;99.90;;;;;;5073558;28;20185;-69
2023/06/10 04:21:38;;;;;;;5.93;4.57;;;19.20;99.90;;;;;;5073877;28;20544;-69
2023/06/10 04:24:04;;;;;;;5.03;4.60;;;19.20;99.90;;;;;;5073077;28;20205;-69
2023/06/10 04:26:29;;;;;;;4.97;4.47;;;19.10;99.90;;;;;;5082871;28;20209;-69
2023/06/10 04:28:55;;;;;;;4.60;4.20;;;19.20;99.90;;;;;;5075611;28;20170;-69
2023/06/10 04:31:20;;;;;;;4.55;4.15;;;19.30;99.90;;;;;;5062414;28;20210;-69
2023/06/10 04:33:46;;;;;;;5.30;4.90;;;19.20;99.90;;;;;;5073345;28;20204;-69
2023/06/10 04:36:12;;;;;;;5.25;4.75;;;19.10;99.90;;;;;;5077828;28;20197;-69
2023/06/10 04:38:37;;;;;;;4.68;4.35;;;19.20;99.90;;;;;;5079190;28;20243;-69
2023/06/10 04:41:03;;;;;;;6.15;5.00;;;19.10;99.90;;;;;;5073305;28;20219;-69
2023/06/10 04:43:30;;;;;;;5.47;4.97;;;19.10;99.90;;;;;;5073232;28;20375;-69
2023/06/10 04:45:55;;;;;;;5.05;4.57;;;19.10;99.90;;;;;;5072835;28;20193;-69
2023/06/10 04:48:23;;;;;;;7.50;4.53;;;19.40;99.90;;;;;;5072845;28;20166;-69
2023/06/10 04:50:50;;;;;;;4.97;4.47;;;19.70;99.90;;;;;;5073051;28;20170;-70
2023/06/10 04:53:16;;;;;;;5.25;4.75;;;20.10;99.90;;;;;;5071652;28;20174;-69
2023/06/10 04:55:41;;;;;;;5.68;4.90;;;21.00;99.90;;;;;;5072795;28;20215;-69
2023/06/10 04:58:07;;;;;;;4.72;4.35;;;22.20;99.90;;;;;;5072733;28;20252;-69
2023/06/10 05:00:33;;;;;;;4.68;4.15;;;22.70;99.90;;;;;;5072864;28;20184;-70
2023/06/10 05:02:58;;;;;;;4.40;4.10;;;22.90;99.90;;;;;;5072718;28;20198;-69
2023/06/10 05:05:24;;;;;;;4.53;4.13;;;;;;;;;;5072510;28;20178;-69
2023/06/10 05:07:50;;;;;;;4.30;3.95;;;24.20;99.90;;;;;;5072769;28;20665;-70
2023/06/10 05:10:15;;;;;;;4.45;4.05;;;24.20;99.90;;;;;;5072685;28;20184;-69
2023/06/10 05:12:41;;;;;;;4.95;4.45;;;24.20;99.90;;;;;;5072531;28;20254;-69
2023/06/10 05:15:08;;;;;;;4.50;4.10;;;22.50;99.90;;;;;;5072252;28;20178;-70
2023/06/10 05:17:37;;;;;;;4.78;4.38;;;;;;;;;;5072290;28;20205;-70
2023/06/10 05:20:04;;;;;;;4.82;4.43;;;21.60;99.90;;;;;;5072553;28;20166;-70
2023/06/10 05:22:29;;;;;;;4.70;4.30;;;21.60;99.90;;;;;;5072262;28;20193;-70
2023/06/10 05:24:55;;;;;;;4.82;4.32;;;21.90;99.90;;;;;;5072159;28;20253;-70
2023/06/10 05:27:21;;;;;;;4.85;4.50;;;22.10;99.90;;;;;;5081941;28;20215;-70
2023/06/10 05:29:47;;;;;;;4.72;4.40;;;22.40;99.90;;;;;;5072354;28;20200;-69
2023/06/10 05:32:13;;;;;;;7.20;4.70;;;22.30;99.90;;;;;;5072002;28;20209;-69
2023/06/10 05:34:38;;;;;;;5.75;4.97;;;22.00;99.90;;;;;;5072180;28;20194;-69
2023/06/10 05:37:04;;;;;;;5.70;5.20;;;22.00;99.90;;;;;;5072099;28;20208;-70
2023/06/10 05:39:30;;;;;;;6.43;4.95;;;21.80;99.90;;;;;;5072296;28;20184;-69
2023/06/10 05:41:56;;;;;;;6.13;5.07;;;21.80;99.90;;;;;;5072018;28;20189;-69
2023/06/10 05:44:21;;;;;;;5.75;4.82;;;21.70;99.90;;;;;;5071806;28;20693;-69
2023/06/10 05:46:47;;;;;;;9.73;5.40;;;21.70;99.90;;;;;;5076044;28;20197;-70
2023/06/10 05:49:12;;;;;;;5.40;4.90;;;21.80;99.90;;;;;;5071770;28;20178;-69
2023/06/10 05:51:38;;;;;;;7.20;5.22;;;22.10;99.90;;;;;;5071860;28;20260;-69
2023/06/10 05:54:04;;;;;;;5.07;4.68;;;21.90;99.90;;;;;;5071635;28;20703;-70
2023/06/10 05:56:29;;;;;;;4.68;4.28;;;21.90;99.90;;;;;;5071791;28;20204;-70
2023/06/10 05:58:55;;;;;;;6.75;4.78;;;21.90;99.90;;;;;;5071921;28;20192;-69
2023/06/10 06:01:21;;;;;;;4.90;4.50;;;22.00;99.90;;;;;;5071633;28;20626;-70
2023/06/10 06:03:47;;;;;;;5.30;4.80;;;22.10;99.90;;;;;;5071376;28;20208;-70
2023/06/10 06:06:12;;;;;;;5.38;4.93;;;22.20;99.90;;;;;;5072507;28;20271;-70
2023/06/10 06:08:38;;;;;;;5.20;4.70;;;22.30;99.90;;;;;;5084299;28;20227;-69
2023/06/10 06:11:03;;;;;;;6.50;4.60;;;22.30;99.90;;;;;;5071514;28;20638;-70
2023/06/10 06:13:29;;;;;;;5.32;4.93;;;22.20;99.90;;;;;;5083652;28;20185;-69
2023/06/10 06:15:54;;;;;;;6.68;4.38;;;22.30;99.90;;;;;;5071435;28;20594;-69
2023/06/10 06:18:20;;;;;;;5.85;4.78;;;22.30;99.90;;;;;;5072711;28;20615;-66
2023/06/10 06:20:45;;;;;;;5.43;4.97;;;22.40;99.90;;;;;;5072769;28;20733;-67
2023/06/10 06:23:11;;;;;;;5.82;4.90;;;22.30;99.90;;;;;;5083856;22;20244;-64
2023/06/10 06:25:38;;;;;;;6.97;5.30;;;22.40;99.90;;;;;;5067940;28;20194;-66
2023/06/10 06:28:11;;;;;;;5.50;5.00;;;22.30;99.90;;;;;;5051438;28;20189;-67
2023/06/10 06:30:36;;;;;;;8.73;5.07;;;22.30;99.90;;;;;;5051633;28;20174;-65
2023/06/10 06:33:02;;;;;;;6.50;4.97;;;22.30;99.90;;;;;;5051596;28;20538;-66
2023/06/10 06:35:30;;;;;;;5.93;5.32;;;22.40;99.90;;;;;;5033401;28;20178;-67
2023/06/10 06:37:55;;;;;;;5.20;4.80;;;22.40;99.90;;;;;;5051315;28;20174;-65
2023/06/10 06:40:21;;;;;;;5.32;4.82;;;22.40;99.90;;;;;;5051760;28;20185;-66
2023/06/10 06:42:46;;;;;;;5.63;5.13;;;22.50;99.90;;;;;;5051364;28;20833;-67
2023/06/10 06:45:12;;;;;;;5.10;4.60;;;22.50;99.90;;;;;;5051280;28;20173;-67
2023/06/10 06:47:38;;;;;;;6.10;5.57;;;22.50;99.90;;;;;;5033498;28;20243;-65
2023/06/10 06:50:04;;;;;;;5.75;5.15;;;22.80;99.90;;;;;;5051401;28;20181;-64
2023/06/10 06:52:29;;;;;;;5.47;4.93;;;22.80;99.90;;;;;;5034183;28;20167;-67
2023/06/10 06:54:55;;;;;;;6.20;5.00;;;22.60;99.90;;;;;;5051222;28;20178;-65
2023/06/10 06:57:20;;;;;;;5.47;4.88;;;22.80;99.90;;;;;;5051581;28;20189;-65
2023/06/10 06:59:46;;;;;;;6.18;4.50;;;23.00;99.90;;;;;;5065287;28;20253;-66
2023/06/10 07:02:11;;;;;;;5.10;4.68;;;23.30;99.90;;;;;;5051455;28;20179;-67
2023/06/10 07:04:37;;;;;;;4.95;4.45;;;23.20;99.90;;;;;;5033382;28;20257;-65
2023/06/10 07:07:04;;;;;;;4.70;4.40;;;23.10;99.90;;;;;;5051417;28;20232;-66
2023/06/10 07:09:29;;;;;;;5.30;4.90;;;23.30;99.90;;;;;;5051593;28;20167;-65
2023/06/10 07:11:55;;;;;;;4.53;4.13;;;23.30;99.90;;;;;;5051249;28;20198;-67
2023/06/10 07:14:21;;;;;;;4.88;4.47;;;23.30;99.90;;;;;;5051109;28;20182;-65
2023/06/10 07:16:48;;;;;;;5.05;4.65;;;23.40;99.90;;;;;;5053972;28;20230;-66
2023/06/10 07:19:13;;;;;;;5.47;4.97;;;23.40;99.90;;;;;;5055027;28;20187;-66
2023/06/10 07:21:39;;;;;;;5.00;4.60;;;23.30;99.90;;;;;;5055397;28;20531;-67
2023/06/10 07:24:05;;;;;;;5.35;4.90;;;23.30;99.90;;;;;;5054869;28;20245;-66
2023/06/10 07:26:31;;;;;;;5.28;4.82;;;23.50;99.90;;;;;;5055049;28;20194;-65
2023/06/10 07:28:57;;;;;;;5.07;4.68;;;23.70;99.90;;;;;;5054804;28;20178;-67
2023/06/10 07:31:24;;;;;;;4.90;4.50;;;23.80;99.90;;;;;;5054898;28;20171;-65
2023/06/10 07:33:49;;;;;;;5.10;4.70;;;23.50;99.90;;;;;;5036680;28;20180;-67
2023/06/10 07:36:15;;;;;;;5.43;4.93;;;23.30;99.90;;;;;;5054974;28;20277;-65
2023/06/10 07:38:42;;;;;;;5.38;4.60;;;23.50;99.90;;;;;;5054697;28;20253;-66
2023/06/10 07:41:08;;;;;;;4.93;4.28;;;23.50;99.90;;;;;;5054486;28;20171;-65
2023/06/10 07:43:33;;;;;;;5.72;5.15;;;23.60;99.90;;;;;;5054352;28;20206;-66
2023/06/10 07:45:59;;;;;;;4.65;4.25;;;23.70;99.90;;;;;;5054361;28;20218;-65
2023/06/10 07:48:25;;;;;;;5.50;5.00;;;23.80;99.90;;;;;;5054621;28;20170;-68
2023/06/10 07:50:51;;;;;;;4.82;4.45;;;24.00;99.90;;;;;;5054352;28;20173;-67
2023/06/10 07:53:18;;;;;;;6.60;4.82;;;;;;;;;;5054294;28;20209;-65
2023/06/10 07:55:44;;;;;;;5.03;4.63;;;24.00;99.90;;;;;;5054254;28;20191;-65
2023/06/10 07:58:10;;;;;;;5.22;4.72;;;23.90;99.90;;;;;;5054357;28;20688;-66
2023/06/10 08:00:35;;;;;;;5.15;4.57;;;24.10;99.90;;;;;;5054899;28;20226;-65
2023/06/10 08:03:01;;;;;;;5.15;4.40;;;24.10;99.90;;;;;;5054268;28;20210;-65
2023/06/10 08:05:26;;;;;;;4.90;4.47;;;23.90;99.90;;;;;;5054120;28;20177;-66
2023/06/10 08:07:52;;;;;;;4.30;4.00;;;24.10;99.90;;;;;;5054111;28;20162;-67
2023/06/10 08:10:17;;;;;;;4.38;3.70;;;24.00;99.90;;;;;;5054661;28;20167;-65
2023/06/10 08:12:43;;;;;;;4.25;3.85;;;24.30;99.90;;;;;;5036318;28;20178;-67
2023/06/10 08:15:09;;;;;;;5.18;4.68;;;24.40;99.90;;;;;;5053997;28;20308;-66
2023/06/10 08:17:35;;;;;;;4.72;4.32;;;24.50;99.90;;;;;;5035979;28;20202;-66
2023/06/10 08:20:01;;;;;;;5.97;3.95;;;24.80;99.90;;;;;;5036619;28;20174;-66
2023/06/10 08:22:28;;;;;;;4.28;3.92;;;24.70;99.90;;;;;;5040856;28;20179;-67
2023/06/10 08:24:54;;;;;;;3.75;3.45;;;24.70;99.90;;;;;;5036198;28;20189;-67
2023/06/10 08:27:19;;;;;;;4.10;3.80;;;25.00;99.90;;;;;;5053730;28;20572;-66
2023/06/10 08:29:45;;;;;;;4.35;3.97;;;25.00;99.90;;;;;;5053821;28;20257;-65
2023/06/10 08:32:12;;;;;;;4.00;3.70;;;;;;;;;;5067176;28;20249;-66
2023/06/10 08:34:37;;;;;;;4.68;4.28;;;25.00;99.90;;;;;;5053755;28;20170;-65
2023/06/10 08:37:04;;;;;;;4.30;3.90;;;25.30;99.90;;;;;;5053633;28;20198;-66
2023/06/10 08:39:31;;;;;;;4.20;3.90;;;25.20;99.90;;;;;;5053719;28;20181;-66
2023/06/10 08:42:33;;;;;;;3.88;3.67;;;25.30;99.90;;;;;;5053444;28;20251;-65
2023/06/10 08:45:00;;;;;;;4.18;3.85;;;24.90;99.90;;;;;;5035523;28;20201;-67
2023/06/10 08:47:30;;;;;;;3.60;3.30;;;25.10;99.90;;;;;;5035302;28;20194;-66
2023/06/10 08:50:03;;;;;;;4.03;3.70;;;25.40;99.90;;;;;;5035589;28;20175;-65
2023/06/10 08:52:34;;;;;;;4.07;3.78;;;25.60;99.90;;;;;;5053562;28;20179;-66
2023/06/10 08:55:04;;;;;;;6.25;4.00;;;25.50;99.90;;;;;;5052571;28;20186;-65
2023/06/10 08:57:30;;;;;;;4.15;3.85;;;25.60;99.90;;;;;;5053363;28;20183;-66
2023/06/10 08:59:57;;;;;;;4.00;3.80;;;25.60;99.90;;;;;;5053173;28;20638;-67
2023/06/10 09:02:24;;;;;;;4.22;3.92;;;25.60;99.90;;;;;;5035554;28;20190;-67
2023/06/10 09:04:51;;;;;;;4.32;3.97;;;25.40;99.90;;;;;;5052791;28;20607;-67
2023/06/10 09:07:17;;;;;;;3.90;3.65;;;25.80;99.90;;;;;;5043565;28;20190;-67
2023/06/10 09:09:44;;;;;;;3.78;3.58;;;25.90;99.90;;;;;;5049156;28;20178;-67
2023/06/10 09:12:10;;;;;;;4.22;3.67;;;26.20;99.90;;;;;;5052835;28;20259;-67
2023/06/10 09:14:36;;;;;;;3.70;3.40;;;26.30;99.90;;;;;;5052949;28;20506;-67
2023/06/10 09:17:05;;;;;;;4.10;3.80;;;26.40;99.90;;;;;;5052781;28;20201;-68
2023/06/10 09:19:31;;;;;;;4.00;3.70;;;26.50;99.90;;;;;;5053158;28;20170;-65
2023/06/10 09:21:58;;;;;;;3.85;3.55;;;26.40;99.90;;;;;;5052888;28;20521;-66
2023/06/10 09:24:24;;;;;;;4.10;3.42;;;26.40;99.90;;;;;;5052138;28;20210;-65
2023/06/10 09:26:50;;;;;;;3.95;3.67;;;26.40;99.90;;;;;;5052779;28;20227;-66
2023/06/10 09:29:16;;;;;;;3.92;3.63;;;26.10;99.90;;;;;;5052711;28;20170;-66
2023/06/10 09:31:44;;;;;;;3.78;3.45;;;26.60;99.90;;;;;;5052569;28;20181;-67
2023/06/10 09:34:13;;;;;;;3.80;3.50;;;26.50;99.90;;;;;;5038740;28;20171;-67
2023/06/10 09:36:40;;;;;;;4.75;3.90;;;26.50;99.90;;;;;;5052516;28;20218;-66
2023/06/10 09:39:17;;;;;;;4.47;4.18;;;26.30;99.90;;;;;;5051698;28;20209;-67
2023/06/10 09:41:44;;;;;;;4.57;3.92;;;26.20;99.90;;;;;;5052461;28;20174;-64
2023/06/10 09:44:17;;;;;;;4.28;3.97;;;26.40;99.90;;;;;;5052075;28;20617;-67
2023/06/10 09:46:46;;;;;;;4.30;3.85;;;26.90;99.90;;;;;;5034316;28;20355;-66
2023/06/10 09:49:11;;;;;;;4.60;3.70;;;27.00;99.90;;;;;;5052320;28;20163;-65
2023/06/10 09:51:37;;;;;;;4.20;3.90;;;27.00;99.90;;;;;;5051185;28;20669;-65
2023/06/10 09:54:04;;;;;;;4.47;3.97;;;26.60;99.90;;;;;;5040040;28;20278;-65
2023/06/10 09:56:34;;;;;;;3.70;3.40;;;27.00;99.90;;;;;;5052240;28;20613;-67
2023/06/10 09:58:59;;;;;;;3.92;3.63;;;26.80;99.90;;;;;;5052158;28;20262;-67
2023/06/10 10:01:25;;;;;;;3.65;3.40;;;27.50;99.90;;;;;;5052096;28;20262;-66
2023/06/10 10:03:51;;;;;;;3.80;3.50;;;27.60;99.90;;;;;;5051784;28;20194;-66
2023/06/10 10:06:18;;;;;;;3.90;3.60;;;27.50;99.90;;;;;;5051859;28;20194;-66
2023/06/10 10:08:45;;;;;;;5.00;3.60;;;27.50;99.90;;;;;;5051995;28;20170;-65
2023/06/10 10:11:11;;;;;;;63.25;6.85;;;27.80;99.90;;;;;;5051794;28;20167;-66
2023/06/10 10:13:37;;;;;;;4.13;3.92;;;27.90;99.90;;;;;;5052058;28;20646;-66
2023/06/10 10:16:17;;;;;;;10.00;4.40;;;28.10;99.90;;;;;;5051695;28;20205;-66
2023/06/10 10:18:55;;;;;;;7.55;4.20;;;28.10;99.90;;;;;;5051874;28;20185;-65
2023/06/10 10:21:26;;;;;;;28.58;5.68;;;27.30;99.90;;;;;;5051935;28;20170;-65
2023/06/10 10:24:20;;;;;;;6.88;4.38;;;26.90;99.90;;;;;;5051233;28;20210;-67
2023/06/10 10:26:48;;;;;;;5.18;4.30;;;26.60;99.90;;;;;;5041838;28;20183;-67
2023/06/10 10:29:24;;;;;;;4.35;4.05;;;27.10;99.90;;;;;;5033680;28;20173;-66
2023/06/10 10:31:53;;;;;;;4.57;4.18;;;27.30;99.90;;;;;;5051682;28;20174;-68
2023/06/10 10:34:25;;;;;;;4.47;4.07;;;27.20;99.90;;;;;;5033756;28;20230;-65
2023/06/10 10:36:51;;;;;;;5.35;4.03;;;27.30;99.90;;;;;;5051712;28;20190;-67
2023/06/10 10:39:18;;;;;;;14.23;4.38;;;27.50;99.90;;;;;;5051583;28;20189;-66
2023/06/10 10:41:44;;;;;;;6.35;3.83;;;27.90;99.90;;;;;;5043822;28;20178;-67
2023/06/10 10:44:11;;;;;;;15.93;4.32;;;28.60;99.90;;;;;;5051066;28;20232;-67
2023/06/10 10:47:04;;;;;;;8.38;4.15;;;28.60;99.90;;;;;;5033928;28;20357;-67
2023/06/10 10:49:30;;;;;;;9.27;4.53;;;28.60;99.90;;;;;;5048157;28;20685;-65
2023/06/10 10:51:57;;;;;;;4.95;4.32;;;28.60;99.60;;;;;;5054619;28;20257;-66
2023/06/10 10:54:33;;;;;;;4.70;4.10;;;28.60;99.80;;;;;;5055402;28;20681;-66
2023/06/10 10:57:13;;;;;;;4.93;4.28;;;28.80;99.90;;;;;;5055371;28;20189;-67
2023/06/10 10:59:59;;;;;;;6.40;3.40;;;28.70;98.90;;;;;;5055497;28;20220;-66
2023/06/10 11:02:59;;;;;;;0.00;0.00;;;29.00;97.40;;;;;;5045405;28;20179;-67
2023/06/10 11:05:44;;;;;;;0.00;0.00;;;29.00;97.70;;;;;;4999940;28;20562;-66
2023/06/10 11:08:11;;;;;;;0.00;0.00;;;29.00;97.30;;;;;;5055534;28;20171;-66
2023/06/10 11:10:54;;;;;;;0.10;0.10;;;29.00;96.80;;;;;;5056108;28;20167;-66
2023/06/10 11:13:22;;;;;;;0.00;0.00;;;28.90;93.20;;;;;;5055680;28;20162;-67
2023/06/10 11:15:49;;;;;;;0.30;0.25;;;28.60;93.70;;;;;;5055412;28;20190;-66
2023/06/10 11:18:19;;;;;;;0.25;0.25;;;28.40;94.30;;;;;;5055216;28;20530;-67
2023/06/10 11:21:04;;;;;;;0.08;0.08;;;28.60;93.90;;;;;;5055002;28;20174;-66
2023/06/10 11:23:32;;;;;;;0.10;0.10;;;28.40;92.80;;;;;;5050649;28;20203;-66
2023/06/10 11:26:18;;;;;;;0.00;0.00;;;28.20;93.80;;;;;;5051653;28;20185;-67
2023/06/10 11:28:46;;;;;;;0.57;0.38;;;27.90;93.80;;;;;;5055445;28;20168;-67
2023/06/10 11:31:28;;;;;;;0.20;0.20;;;27.80;94.80;;;;;;5055326;28;20700;-65
2023/06/10 11:34:07;;;;;;;0.28;0.28;;;27.60;96.00;;;;;;5054715;28;20177;-67
2023/06/10 11:36:42;;;;;;;0.00;0.00;;;28.30;95.20;;;;;;5055056;28;20202;-68
2023/06/10 11:39:08;;;;;;;0.00;0.00;;;28.80;92.50;;;;;;5054997;28;20558;-66
2023/06/10 11:41:35;;;;;;;0.00;0.00;;;29.00;92.70;;;;;;5043419;28;20175;-65
2023/06/10 11:44:03;;;;;;;0.00;0.00;;;29.50;91.50;;;;;;5053046;28;20203;-66
2023/06/10 11:46:29;;;;;;;0.00;0.00;;;29.80;93.30;;;;;;5054747;28;20212;-66
2023/06/10 11:48:58;;;;;;;0.00;0.00;;;29.60;90.90;;;;;;5054715;28;20631;-67
2023/06/10 11:51:41;;;;;;;0.60;0.45;;;29.70;90.20;;;;;;5036755;28;20538;-68
2023/06/10 11:54:08;;;;;;;0.00;0.00;;;28.80;90.60;;;;;;5042721;28;20227;-66
2023/06/10 11:56:34;;;;;;;0.08;0.08;;;28.90;90.30;;;;;;5054536;28;20417;-65
2023/06/10 11:59:04;;;;;;;0.10;0.10;;;29.60;84.30;;;;;;5056841;28;20171;-66
2023/06/10 12:01:31;;;;;;;0.00;0.00;;;30.10;91.90;;;;;;5070070;28;20260;-68
2023/06/10 12:04:05;;;;;;;0.05;0.05;;;29.40;85.70;;;;;;5064816;28;20658;-66
2023/06/10 12:06:43;;;;;;;0.30;0.30;;;28.90;87.10;;;;;;5054515;28;20562;-67
2023/06/10 12:09:19;;;;;;;0.45;0.45;;;28.90;86.30;;;;;;5054361;28;20220;-67
2023/06/10 12:11:45;;;;;;;0.00;0.00;;;28.50;90.50;;;;;;5034696;28;20568;-68
2023/06/10 12:14:10;;;;;;;0.00;0.00;;;28.30;86.70;;;;;;5035000;28;20262;-66
2023/06/10 12:16:36;;;;;;;0.00;0.00;;;29.40;88.40;;;;;;5054802;28;20194;-67
2023/06/10 12:19:06;;;;;;;0.35;0.35;;;30.20;82.00;;;;;;5054324;28;20229;-66
2023/06/10 12:21:34;;;;;;;0.10;0.10;;;30.20;81.00;;;;;;5054242;28;20511;-67
2023/06/10 12:24:07;;;;;;;0.00;0.00;;;30.20;83.80;;;;;;5070575;23;20240;-69
2023/06/10 12:26:40;;;;;;;0.17;0.17;;;30.40;82.60;;;;;;5062969;28;20186;-69
2023/06/10 12:29:14;;;;;;;0.00;0.00;;;29.80;83.50;;;;;;5054224;28;20166;-68
2023/06/10 12:32:15;;;;;;;0.00;0.00;;;30.10;80.00;;;;;;5054037;28;20174;-68
2023/06/10 12:34:40;;;;;;;0.00;0.00;;;30.30;84.20;;;;;;4981628;28;20543;-69
2023/06/10 12:37:13;;;;;;;0.00;0.00;;;30.50;79.90;;;;;;5034554;28;20183;-69
2023/06/10 12:39:39;;;;;;;0.00;0.00;;;29.30;80.00;;;;;;5034813;28;20608;-69
2023/06/10 12:42:08;;;;;;;0.15;0.15;;;29.50;82.20;;;;;;5034786;28;20639;-68
2023/06/10 12:44:38;;;;;;;0.10;0.10;;;29.40;83.20;;;;;;5034402;28;20202;-69
2023/06/10 12:47:12;;;;;;;0.00;0.00;;;29.10;82.90;;;;;;5037490;28;20276;-68
2023/06/10 12:49:38;;;;;;;0.00;0.00;;;30.00;83.90;;;;;;5053881;28;20189;-68
2023/06/10 12:52:05;;;;;;;0.00;0.00;;;30.50;78.40;;;;;;5053777;28;20233;-67